Time;durP1;ratioP1;P1;durP2;ratioP2;P2;SDS_P1;SDS_P2;PMS_P1;PMS_P2;Temp;Humidity;BMP_temperature;BMP_pressure;BME280_temperature;BME280_humidity;BME280_pressure;Samples;Min_cycle;Max_cycle;Signal;HPM_P1;HPM_P2
2021/03/16 00:00:07;;;;;;;20.35;11.15;;;;;;;1.81;88.13;96078.91;5051747;28;20590;-69
2021/03/16 00:02:33;;;;;;;18.83;11.10;;;;;;;1.81;87.99;96081.59;5050830;28;20442;-69
2021/03/16 00:04:59;;;;;;;20.00;11.10;;;;;;;1.93;87.83;96084.03;5051917;28;20116;-69
2021/03/16 00:07:26;;;;;;;20.80;11.43;;;;;;;1.93;87.71;96088.56;5050627;28;20090;-69
2021/03/16 00:09:51;;;;;;;19.45;10.60;;;;;;;2.01;87.34;96085.34;5051277;28;20052;-69
2021/03/16 00:12:18;;;;;;;20.00;10.90;;;;;;;2.11;87.16;96096.09;5050846;28;20064;-69
2021/03/16 00:14:44;;;;;;;18.35;11.07;;;;;;;2.17;86.77;96100.38;5051076;28;20423;-69
2021/03/16 00:17:10;;;;;;;19.45;11.25;;;;;;;2.18;86.45;96099.28;5051158;28;20049;-69
2021/03/16 00:19:36;;;;;;;19.13;11.25;;;;;;;2.24;86.56;96108.16;5056911;28;20078;-69
2021/03/16 00:22:03;;;;;;;18.85;11.70;;;;;;;2.31;86.19;96106.81;5069277;28;20456;-70
2021/03/16 00:24:30;;;;;;;21.35;11.55;;;;;;;2.26;86.13;96108.69;5070650;28;20094;-69
2021/03/16 00:26:56;;;;;;;21.27;11.77;;;;;;;2.30;86.01;96110.56;5069480;28;20067;-69
2021/03/16 00:29:22;;;;;;;20.25;11.50;;;;;;;2.25;85.67;96113.28;5050092;28;20499;-69
2021/03/16 00:31:48;;;;;;;20.13;11.85;;;;;;;2.28;85.68;96104.66;5051217;28;20033;-69
2021/03/16 00:34:14;;;;;;;25.73;12.48;;;;;;;2.33;85.76;96109.22;5050383;28;20053;-69
2021/03/16 00:36:40;;;;;;;22.48;11.90;;;;;;;2.31;85.58;96112.19;5050948;28;20103;-69
2021/03/16 00:39:06;;;;;;;19.88;11.85;;;;;;;2.24;85.59;96111.63;5050713;28;20045;-68
2021/03/16 00:41:34;;;;;;;20.20;11.70;;;;;;;2.22;85.78;96118.38;5050395;28;20115;-69
2021/03/16 00:44:00;;;;;;;21.35;12.40;;;;;;;2.21;86.00;96114.88;5051115;28;20072;-69
2021/03/16 00:46:26;;;;;;;19.17;12.02;;;;;;;2.25;85.97;96117.84;5049801;28;20041;-69
2021/03/16 00:48:52;;;;;;;18.48;11.70;;;;;;;2.33;85.89;96120.75;5052533;28;20052;-69
2021/03/16 00:51:18;;;;;;;21.23;12.45;;;;;;;2.32;85.59;96119.16;5067466;28;20041;-69
2021/03/16 00:53:44;;;;;;;21.98;12.23;;;;;;;2.27;85.78;96127.22;5071166;28;20046;-69
2021/03/16 00:56:10;;;;;;;21.08;12.52;;;;;;;2.31;85.60;96122.94;5069721;28;20495;-69
2021/03/16 00:58:37;;;;;;;22.10;12.38;;;;;;;2.39;85.68;96132.31;5054547;28;20049;-69
2021/03/16 01:01:06;;;;;;;20.55;12.65;;;;;;;2.33;85.74;96131.50;5049359;28;20052;-70
2021/03/16 01:03:32;;;;;;;22.92;13.85;;;;;;;2.30;85.88;96129.38;5049672;28;20053;-69
2021/03/16 01:05:58;;;;;;;23.38;12.80;;;;;;;2.39;85.51;96134.19;5050818;28;20056;-69
2021/03/16 01:08:24;;;;;;;21.00;12.13;;;;;;;2.39;85.41;96129.63;5049384;28;20036;-69
2021/03/16 01:10:52;;;;;;;20.27;13.07;;;;;;;2.46;85.49;96127.47;5050952;28;20415;-69
2021/03/16 01:13:18;;;;;;;22.88;13.02;;;;;;;2.51;85.41;96132.03;5049327;28;20041;-68
2021/03/16 01:15:45;;;;;;;24.95;12.35;;;;;;;2.52;85.27;96139.03;5050930;28;20094;-69
2021/03/16 01:18:11;;;;;;;22.92;12.93;;;;;;;2.53;85.12;96140.63;5050033;28;20199;-69
2021/03/16 01:20:37;;;;;;;25.02;13.05;;;;;;;2.53;85.18;96135.25;5050371;28;20056;-69
2021/03/16 01:23:04;;;;;;;24.05;13.65;;;;;;;2.52;85.46;96139.03;5049410;28;20049;-68
2021/03/16 01:25:30;;;;;;;21.63;13.45;;;;;;;2.55;85.02;96138.47;5050319;28;20400;-69
2021/03/16 01:27:57;;;;;;;21.33;13.23;;;;;;;2.57;85.04;96142.50;5049829;28;20106;-69
2021/03/16 01:30:24;;;;;;;23.60;13.48;;;;;;;2.46;85.22;96134.75;5048981;28;20044;-69
2021/03/16 01:32:51;;;;;;;26.33;12.35;;;;;;;2.48;85.47;96143.31;5050501;28;20412;-68
2021/03/16 01:35:17;;;;;;;23.95;13.43;;;;;;;2.50;85.09;96141.16;5048821;28;20424;-69
2021/03/16 01:37:44;;;;;;;21.02;11.73;;;;;;;2.46;85.12;96140.13;5050765;28;20048;-69
2021/03/16 01:40:13;;;;;;;23.17;11.98;;;;;;;2.54;85.38;96145.72;5049011;28;20408;-69
2021/03/16 01:42:39;;;;;;;25.00;12.95;;;;;;;2.61;85.08;96143.59;5050573;28;20041;-69
2021/03/16 01:45:09;;;;;;;22.95;11.85;;;;;;;2.62;84.74;96147.06;5049287;28;20090;-69
2021/03/16 01:47:35;;;;;;;19.13;11.55;;;;;;;2.52;84.66;96145.22;5050056;28;20045;-69
2021/03/16 01:50:04;;;;;;;20.33;11.13;;;;;;;2.54;84.65;96142.22;5048984;28;20045;-70
2021/03/16 01:52:30;;;;;;;22.50;11.57;;;;;;;2.50;84.97;96141.97;5049600;28;20052;-69
2021/03/16 01:54:58;;;;;;;18.42;10.30;;;;;;;2.46;84.66;96146.28;5050162;28;20037;-69
2021/03/16 01:57:27;;;;;;;22.55;11.15;;;;;;;2.48;84.84;96149.50;5048628;28;20063;-69
2021/03/16 01:59:53;;;;;;;20.33;10.88;;;;;;;2.56;84.72;96156.22;5050445;28;20598;-68
2021/03/16 02:02:19;;;;;;;18.13;11.48;;;;;;;2.58;85.00;96148.69;5048890;28;20045;-69
2021/03/16 02:04:45;;;;;;;19.08;10.57;;;;;;;2.55;84.37;96139.28;5050343;28;20072;-69
2021/03/16 02:07:18;;;;;;;19.65;10.23;;;;;;;2.58;84.05;96144.13;5048884;28;20059;-69
2021/03/16 02:09:49;;;;;;;18.42;9.88;;;;;;;2.54;84.00;96148.41;5049983;28;20041;-68
2021/03/16 02:12:24;;;;;;;19.42;10.15;;;;;;;2.42;84.26;96152.47;5049336;28;20045;-69
2021/03/16 02:14:56;;;;;;;16.13;9.73;;;;;;;2.48;84.21;96154.06;5049331;28;20090;-69
2021/03/16 02:17:28;;;;;;;19.77;9.38;;;;;;;2.48;84.05;96156.75;5049834;28;20076;-69
2021/03/16 02:20:09;;;;;;;18.23;9.25;;;;;;;2.56;83.85;96154.34;5048816;28;20384;-69
2021/03/16 02:22:40;;;;;;;16.90;10.07;;;;;;;2.55;83.80;96165.34;5049841;28;20049;-69
2021/03/16 02:25:28;;;;;;;21.70;10.20;;;;;;;2.46;83.43;96158.94;5048875;28;20056;-69
2021/03/16 02:28:10;;;;;;;18.73;9.43;;;;;;;2.47;83.39;96163.22;5049119;28;20052;-69
2021/03/16 02:30:40;;;;;;;21.17;9.45;;;;;;;2.34;83.22;96157.31;5049918;28;20044;-69
2021/03/16 02:33:09;;;;;;;19.55;9.10;;;;;;;2.37;83.67;96161.34;5048504;28;20053;-69
2021/03/16 02:35:36;;;;;;;18.60;9.18;;;;;;;2.39;83.45;96159.19;5050017;28;20036;-68
2021/03/16 02:38:05;;;;;;;18.67;9.13;;;;;;;2.45;83.27;96160.78;5048561;28;20419;-69
2021/03/16 02:40:32;;;;;;;18.10;8.40;;;;;;;2.45;83.01;96165.34;5049801;28;20522;-68
2021/03/16 02:42:59;;;;;;;16.13;8.95;;;;;;;2.45;82.82;96166.16;5051478;28;20106;-68
2021/03/16 02:45:25;;;;;;;20.38;9.15;;;;;;;2.40;82.63;96162.69;5052629;28;20041;-68
2021/03/16 02:47:52;;;;;;;17.48;9.23;;;;;;;2.45;82.92;96168.03;5053115;28;20068;-69
2021/03/16 02:50:18;;;;;;;20.35;8.95;;;;;;;2.47;82.61;96168.59;5051963;28;20508;-69
2021/03/16 02:52:45;;;;;;;16.65;8.30;;;;;;;2.51;82.88;96175.06;5053260;28;20045;-69
2021/03/16 02:55:12;;;;;;;17.77;8.10;;;;;;;2.56;82.55;96172.34;5051843;28;20056;-69
2021/03/16 02:57:39;;;;;;;18.90;8.30;;;;;;;2.53;82.15;96178.25;5053394;28;20041;-69
2021/03/16 03:00:06;;;;;;;16.80;8.18;;;;;;;2.56;81.98;96177.72;5051861;28;20215;-69
2021/03/16 03:02:33;;;;;;;17.58;8.32;;;;;;;2.59;81.96;96183.34;5053081;28;20041;-68
2021/03/16 03:05:03;;;;;;;13.48;7.50;;;;;;;2.60;81.72;96184.16;5052296;28;20045;-68
2021/03/16 03:07:29;;;;;;;15.90;8.00;;;;;;;2.55;81.81;96189.53;5052521;28;20037;-69
2021/03/16 03:09:56;;;;;;;17.98;8.02;;;;;;;2.52;82.02;96185.53;5052544;28;20049;-68
2021/03/16 03:12:22;;;;;;;19.38;8.25;;;;;;;2.48;82.06;96191.69;5051903;28;20047;-68
2021/03/16 03:14:48;;;;;;;16.13;8.55;;;;;;;2.46;82.29;96193.88;5052835;28;20045;-68
2021/03/16 03:17:14;;;;;;;18.38;8.20;;;;;;;2.47;81.96;96190.09;5051449;28;20045;-69
2021/03/16 03:19:40;;;;;;;19.27;8.55;;;;;;;2.45;82.38;96197.59;5052740;28;20049;-69
2021/03/16 03:22:15;;;;;;;19.80;9.13;;;;;;;2.37;82.13;96196.28;5051146;28;20056;-69
2021/03/16 03:24:45;;;;;;;15.70;7.50;;;;;;;2.34;81.91;96192.25;5053044;28;20522;-68
2021/03/16 03:27:18;;;;;;;17.30;8.48;;;;;;;2.37;82.26;96195.47;5051960;28;20053;-69
2021/03/16 03:29:45;;;;;;;14.48;7.35;;;;;;;2.50;81.94;96205.66;5052261;28;20090;-68
2021/03/16 03:32:13;;;;;;;20.65;8.15;;;;;;;2.42;81.59;96203.53;5051796;28;20538;-68
2021/03/16 03:34:41;;;;;;;15.93;8.32;;;;;;;2.45;81.95;96213.72;5051847;28;20119;-69
2021/03/16 03:37:09;;;;;;;17.23;7.82;;;;;;;2.48;81.58;96202.47;5051988;28;20049;-68
2021/03/16 03:39:37;;;;;;;18.58;8.18;;;;;;;2.50;81.37;96205.66;5051329;28;20037;-69
2021/03/16 03:42:06;;;;;;;14.88;7.63;;;;;;;2.48;80.94;96213.22;5052290;28;20044;-69
2021/03/16 03:44:34;;;;;;;22.15;7.85;;;;;;;2.51;80.75;96210.00;5051500;28;20037;-68
2021/03/16 03:47:02;;;;;;;14.90;7.22;;;;;;;2.54;80.96;96218.31;5049002;28;20393;-68
2021/03/16 03:49:29;;;;;;;15.52;7.70;;;;;;;2.51;80.79;96218.06;5071146;28;20040;-68
2021/03/16 03:51:56;;;;;;;16.25;7.45;;;;;;;2.51;80.59;96212.69;5069744;28;20052;-68
2021/03/16 03:54:24;;;;;;;15.77;7.18;;;;;;;2.52;80.38;96220.47;5070774;28;20450;-68
2021/03/16 03:56:51;;;;;;;16.60;6.93;;;;;;;2.47;80.47;96230.41;5069798;28;20117;-68
2021/03/16 03:59:18;;;;;;;16.67;7.05;;;;;;;2.55;80.50;96229.84;5051500;28;20041;-68
2021/03/16 04:01:44;;;;;;;13.05;6.97;;;;;;;2.50;80.44;96238.72;5051132;28;20049;-68
2021/03/16 04:04:11;;;;;;;15.00;6.95;;;;;;;2.48;80.59;96246.25;5051767;28;20646;-69
2021/03/16 04:06:37;;;;;;;14.65;6.55;;;;;;;2.54;80.61;96241.69;5050814;28;20531;-69
2021/03/16 04:09:04;;;;;;;14.82;6.97;;;;;;;2.48;80.31;96245.47;5051772;28;20048;-68
2021/03/16 04:11:31;;;;;;;15.20;7.05;;;;;;;2.47;80.75;96252.72;5050968;28;20167;-68
2021/03/16 04:13:57;;;;;;;21.35;7.63;;;;;;;2.52;80.61;96246.53;5051609;28;20106;-68
2021/03/16 04:16:25;;;;;;;14.73;7.65;;;;;;;2.51;80.86;96250.31;5050780;28;20049;-68
2021/03/16 04:18:52;;;;;;;16.20;7.00;;;;;;;2.50;80.62;96248.66;5066814;28;20052;-68
2021/03/16 04:21:18;;;;;;;15.10;7.63;;;;;;;2.53;80.66;96254.31;5068711;28;20045;-68
2021/03/16 04:23:45;;;;;;;19.02;8.05;;;;;;;2.42;81.22;96258.09;5070734;28;20044;-68
2021/03/16 04:26:11;;;;;;;14.15;7.03;;;;;;;2.37;81.40;96255.41;5071237;28;20052;-69
2021/03/16 04:28:38;;;;;;;20.23;8.80;;;;;;;2.33;81.60;96260.50;5054075;28;20107;-68
2021/03/16 04:31:04;;;;;;;15.38;7.45;;;;;;;2.37;81.78;96265.34;5051206;28;20052;-68
2021/03/16 04:33:30;;;;;;;18.35;8.32;;;;;;;2.40;81.58;96275.53;5050581;28;20052;-69
2021/03/16 04:35:55;;;;;;;19.38;7.78;;;;;;;2.31;81.86;96270.72;5051489;28;20068;-68
2021/03/16 04:38:21;;;;;;;20.40;8.30;;;;;;;2.30;82.18;96271.78;5050135;28;20052;-68
2021/03/16 04:40:47;;;;;;;19.70;8.15;;;;;;;2.26;82.03;96275.28;5051192;28;20103;-69
2021/03/16 04:43:13;;;;;;;20.30;7.95;;;;;;;2.28;81.88;96276.63;5050296;28;20037;-68
2021/03/16 04:45:40;;;;;;;18.63;8.77;;;;;;;2.20;82.42;96277.16;5049979;28;20041;-69
2021/03/16 04:48:07;;;;;;;19.48;7.90;;;;;;;2.22;82.21;96275.00;5059647;28;20048;-69
2021/03/16 04:50:33;;;;;;;19.58;9.07;;;;;;;2.19;82.27;96280.88;5070049;28;20613;-68
2021/03/16 04:52:59;;;;;;;16.00;7.97;;;;;;;2.08;82.64;96284.63;5068795;28;20072;-68
2021/03/16 04:55:25;;;;;;;17.17;8.40;;;;;;;2.14;82.86;96283.59;5069285;28;20135;-68
2021/03/16 04:57:52;;;;;;;21.52;8.82;;;;;;;2.15;82.96;96290.56;5061581;28;20123;-69
2021/03/16 05:00:19;;;;;;;21.15;8.95;;;;;;;2.04;82.56;96284.38;5049530;28;20411;-69
2021/03/16 05:02:46;;;;;;;16.85;8.85;;;;;;;2.07;82.84;96297.25;5050917;28;20040;-68
2021/03/16 05:05:13;;;;;;;18.65;8.30;;;;;;;2.10;82.88;96298.63;5049034;28;20048;-68
2021/03/16 05:07:39;;;;;;;18.92;8.98;;;;;;;2.04;82.64;96299.69;5050342;28;20641;-68
2021/03/16 05:10:07;;;;;;;20.23;8.15;;;;;;;2.10;82.79;96293.25;5050049;28;20060;-68
2021/03/16 05:12:33;;;;;;;19.15;8.65;;;;;;;2.11;82.82;96302.91;5049711;28;20045;-68
2021/03/16 05:14:59;;;;;;;21.35;8.55;;;;;;;2.12;82.78;96296.47;5050568;28;20056;-68
2021/03/16 05:17:25;;;;;;;17.50;9.13;;;;;;;2.12;82.53;96309.91;5052972;28;20040;-68
2021/03/16 05:19:51;;;;;;;16.27;8.10;;;;;;;2.07;82.68;96316.06;5070789;28;20040;-68
2021/03/16 05:22:17;;;;;;;22.52;9.20;;;;;;;2.12;83.04;96309.91;5067051;28;20554;-68
2021/03/16 05:24:43;;;;;;;18.50;8.40;;;;;;;2.12;82.42;96315.28;5070691;28;20135;-68
2021/03/16 05:27:10;;;;;;;21.75;9.00;;;;;;;2.13;82.48;96313.38;5064962;28;20501;-68
2021/03/16 05:29:36;;;;;;;21.45;8.07;;;;;;;2.14;82.54;96315.84;5050082;28;20040;-70
2021/03/16 05:32:02;;;;;;;17.88;7.82;;;;;;;2.09;82.40;96323.88;5049281;28;20473;-71
2021/03/16 05:34:28;;;;;;;19.95;8.07;;;;;;;2.13;82.27;96324.94;5050078;28;20045;-70
2021/03/16 05:36:55;;;;;;;19.73;9.25;;;;;;;2.12;82.60;96322.53;5050193;28;20049;-70
2021/03/16 05:39:21;;;;;;;15.82;8.07;;;;;;;2.08;82.33;96324.91;5049089;28;20048;-70
2021/03/16 05:41:47;;;;;;;20.08;8.05;;;;;;;2.05;82.76;96339.69;5050564;28;20044;-68
2021/03/16 05:44:14;;;;;;;15.82;7.57;;;;;;;2.04;83.25;96331.91;5048442;28;20045;-68
2021/03/16 05:46:41;;;;;;;17.63;9.00;;;;;;;1.96;83.67;96343.16;5050262;28;20496;-68
2021/03/16 05:49:08;;;;;;;20.40;8.45;;;;;;;2.02;83.84;96352.84;5066542;28;20474;-69
2021/03/16 05:51:35;;;;;;;15.18;8.50;;;;;;;2.02;83.75;96350.97;5067983;28;20106;-68
2021/03/16 05:54:04;;;;;;;20.67;9.65;;;;;;;2.03;83.62;96352.56;5069022;28;20041;-69
2021/03/16 05:56:31;;;;;;;18.10;9.15;;;;;;;1.96;83.37;96361.94;5069849;28;20447;-68
2021/03/16 05:58:57;;;;;;;19.00;9.40;;;;;;;1.94;83.93;96364.09;5050944;28;20049;-70
2021/03/16 06:01:23;;;;;;;22.48;9.48;;;;;;;1.89;84.27;96362.22;5048920;28;20045;-68
2021/03/16 06:03:49;;;;;;;20.45;8.93;;;;;;;1.85;84.74;96365.66;5050204;28;20722;-68
2021/03/16 06:06:15;;;;;;;20.80;8.90;;;;;;;1.88;84.96;96370.50;5048841;28;20084;-68
2021/03/16 06:08:42;;;;;;;22.10;9.68;;;;;;;1.85;85.05;96376.41;5050312;28;20543;-68
2021/03/16 06:11:10;;;;;;;19.75;9.90;;;;;;;1.79;84.61;96375.59;5048743;28;20047;-69
2021/03/16 06:13:40;;;;;;;24.95;9.18;;;;;;;1.60;84.87;96385.94;5049886;28;20068;-68
2021/03/16 06:16:13;;;;;;;26.65;8.90;;;;;;;1.47;84.92;96381.84;5048681;28;20045;-69
2021/03/16 06:18:42;;;;;;;23.65;9.27;;;;;;;1.30;85.19;96384.72;5066197;28;20109;-69
2021/03/16 06:21:08;;;;;;;23.75;9.65;;;;;;;1.09;86.14;96382.91;5070029;28;20048;-69
2021/03/16 06:23:36;;;;;;;24.25;9.48;;;;;;;1.04;86.71;96383.72;5073852;28;20047;-69
2021/03/16 06:26:03;;;;;;;28.30;11.05;;;;;;;1.03;86.87;96392.00;5073607;28;20048;-69
2021/03/16 06:28:34;;;;;;;25.02;9.90;;;;;;;0.95;87.38;96395.97;5057516;28;20055;-69
2021/03/16 06:31:00;;;;;;;25.67;10.75;;;;;;;0.99;87.63;96390.88;5053925;28;20076;-69
2021/03/16 06:33:28;;;;;;;26.35;10.38;;;;;;;0.99;87.87;96393.56;5052532;28;20094;-69
2021/03/16 06:35:58;;;;;;;28.90;10.15;;;;;;;1.04;88.23;96399.81;5053734;28;20099;-69
2021/03/16 06:38:25;;;;;;;23.90;10.48;;;;;;;1.08;88.30;96400.09;5052632;28;20063;-69
2021/03/16 06:40:51;;;;;;;25.27;10.35;;;;;;;1.16;88.12;96399.63;5053210;28;20043;-69
2021/03/16 06:43:17;;;;;;;26.90;10.95;;;;;;;1.18;87.97;96410.09;5051755;28;20554;-69
2021/03/16 06:45:51;;;;;;;24.33;9.45;;;;;;;1.23;87.94;96410.94;5052618;28;20055;-69
2021/03/16 06:48:19;;;;;;;27.48;11.30;;;;;;;1.27;87.93;96417.41;5063937;28;20056;-70
2021/03/16 06:50:46;;;;;;;26.02;10.23;;;;;;;1.39;87.83;96419.91;5072476;28;20049;-69
2021/03/16 06:53:25;;;;;;;19.65;9.65;;;;;;;1.45;87.71;96423.41;5071136;28;20048;-74
2021/03/16 06:55:52;;;;;;;26.58;9.55;;;;;;;1.51;87.13;96430.44;5072539;28;20072;-72
2021/03/16 06:58:22;;;;;;;20.42;9.40;;;;;;;1.56;86.77;96438.50;5059308;28;20080;-73
2021/03/16 07:00:50;;;;;;;24.73;9.60;;;;;;;1.59;86.55;96429.97;5052660;28;20052;-73
2021/03/16 07:03:16;;;;;;;24.52;9.32;;;;;;;1.63;86.01;96444.50;5050516;28;20618;-73
2021/03/16 07:05:44;;;;;;;21.77;9.60;;;;;;;1.62;85.95;96445.56;5052892;28;20124;-72
2021/03/16 07:08:14;;;;;;;23.50;9.65;;;;;;;1.67;86.13;96450.97;5051909;28;20053;-72
2021/03/16 07:10:41;;;;;;;23.67;9.25;;;;;;;1.73;86.26;96451.81;5053270;28;20045;-72
2021/03/16 07:13:10;;;;;;;22.58;8.82;;;;;;;1.74;85.82;96462.28;5051432;28;20056;-72
2021/03/16 07:15:38;;;;;;;19.17;8.65;;;;;;;1.59;85.48;96464.84;5053055;28;20396;-73
2021/03/16 07:18:07;;;;;;;16.95;7.35;;;;;;;1.53;85.36;96474.75;5060749;28;20044;-73
2021/03/16 07:20:35;;;;;;;15.70;6.45;;;;;;;1.53;84.95;96471.25;5072927;28;20048;-73
2021/03/16 07:23:02;;;;;;;16.35;6.60;;;;;;;1.51;84.78;96478.72;5069690;28;20083;-73
2021/03/16 07:25:29;;;;;;;14.65;5.55;;;;;;;1.42;84.62;96483.78;5072303;28;20453;-72
2021/03/16 07:27:57;;;;;;;12.55;5.43;;;;;;;1.34;84.12;96497.66;5061473;28;20049;-73
2021/03/16 07:30:24;;;;;;;12.88;4.40;;;;;;;1.19;84.32;96501.00;5051349;28;20045;-72
2021/03/16 07:32:52;;;;;;;11.32;3.55;;;;;;;1.09;84.68;96500.91;5052886;28;20082;-73
2021/03/16 07:35:19;;;;;;;11.40;3.63;;;;;;;0.97;85.06;96494.91;5051065;28;20106;-73
2021/03/16 07:37:45;;;;;;;8.20;3.40;;;;;;;0.88;85.47;96491.06;5052749;28;20048;-73
2021/03/16 07:40:16;;;;;;;10.98;3.90;;;;;;;0.85;85.94;96503.13;5051249;28;20103;-73
2021/03/16 07:42:42;;;;;;;11.18;4.88;;;;;;;0.91;86.54;96498.63;5052396;28;20047;-73
2021/03/16 07:45:09;;;;;;;8.95;4.80;;;;;;;0.92;86.31;96492.19;5051239;28;20049;-75
2021/03/16 07:47:36;;;;;;;11.85;4.40;;;;;;;0.77;85.57;96496.31;5057001;28;20044;-73
2021/03/16 07:50:05;;;;;;;9.80;2.95;;;;;;;0.76;84.95;96488.53;5071557;28;20048;-73
2021/03/16 07:52:32;;;;;;;6.15;2.35;;;;;;;0.74;84.79;96502.19;5069413;28;20060;-75
2021/03/16 07:54:58;;;;;;;7.60;3.97;;;;;;;0.66;85.55;96499.94;5072424;28;20092;-73
2021/03/16 07:57:29;;;;;;;11.55;5.03;;;;;;;0.66;86.55;96510.66;5064610;28;20094;-75
2021/03/16 07:59:59;;;;;;;12.13;5.43;;;;;;;0.77;87.15;96501.69;5052351;28;20048;-73
2021/03/16 08:02:29;;;;;;;11.80;6.13;;;;;;;0.88;87.32;96512.50;5050624;28;20496;-73
2021/03/16 08:04:55;;;;;;;14.75;6.25;;;;;;;1.01;87.31;96514.81;5052011;28;20107;-73
2021/03/16 08:07:22;;;;;;;15.40;6.25;;;;;;;1.13;87.09;96518.13;5050828;28;20053;-73
2021/03/16 08:09:51;;;;;;;16.67;6.20;;;;;;;1.20;86.66;96521.44;5051663;28;20041;-73
2021/03/16 08:12:21;;;;;;;14.48;6.07;;;;;;;1.37;86.23;96520.50;5051258;28;20044;-72
2021/03/16 08:14:47;;;;;;;18.10;6.22;;;;;;;1.56;86.08;96519.03;5050989;28;20041;-73
2021/03/16 08:17:25;;;;;;;11.68;5.28;;;;;;;1.79;85.62;96529.44;5053540;28;20056;-73
2021/03/16 08:19:51;;;;;;;11.63;5.10;;;;;;;1.75;84.70;96522.94;5070779;28;20044;-73
2021/03/16 08:22:20;;;;;;;12.90;5.88;;;;;;;1.68;84.41;96522.38;5069222;28;20040;-73
2021/03/16 08:24:46;;;;;;;14.35;5.75;;;;;;;1.70;84.65;96528.28;5070601;28;20505;-73
2021/03/16 08:27:14;;;;;;;12.68;6.22;;;;;;;1.68;84.87;96533.09;5066527;28;20126;-72
2021/03/16 08:29:43;;;;;;;12.82;5.88;;;;;;;1.74;84.68;96531.28;5051247;28;20088;-73
2021/03/16 08:32:14;;;;;;;13.98;6.85;;;;;;;1.80;84.58;96536.41;5050716;28;20052;-73
2021/03/16 08:34:41;;;;;;;17.85;6.68;;;;;;;1.86;85.04;96533.75;5051291;28;20492;-73
2021/03/16 08:37:07;;;;;;;14.30;6.65;;;;;;;2.05;84.85;96543.03;5050036;28;20044;-73
2021/03/16 08:39:33;;;;;;;14.85;7.20;;;;;;;2.15;83.85;96543.09;5050671;28;20118;-73
2021/03/16 08:42:01;;;;;;;13.85;5.68;;;;;;;2.22;83.75;96540.97;5050397;28;20041;-73
2021/03/16 08:44:30;;;;;;;12.65;5.45;;;;;;;2.39;83.77;96542.69;5051392;28;20045;-72
2021/03/16 08:47:08;;;;;;;13.32;5.75;;;;;;;2.40;83.10;96545.09;5050815;28;20045;-73
2021/03/16 08:49:38;;;;;;;15.27;6.00;;;;;;;2.46;81.92;96546.75;5031056;28;20041;-73
2021/03/16 08:52:04;;;;;;;18.65;6.15;;;;;;;2.60;83.11;96547.06;5040539;28;20397;-72
2021/03/16 08:54:30;;;;;;;9.88;5.05;;;;;;;2.53;80.45;96550.00;5050458;28;20052;-72
2021/03/16 08:56:58;;;;;;;15.30;5.75;;;;;;;2.72;81.71;96550.38;5050881;28;20049;-72
2021/03/16 08:59:24;;;;;;;11.63;4.85;;;;;;;2.67;80.98;96554.94;5049645;28;20048;-72
2021/03/16 09:01:51;;;;;;;13.73;5.10;;;;;;;2.65;80.75;96552.47;5051055;28;20044;-72
2021/03/16 09:04:18;;;;;;;11.32;5.13;;;;;;;2.77;80.73;96555.78;5049491;28;20041;-72
2021/03/16 09:06:48;;;;;;;15.93;6.28;;;;;;;2.92;80.76;96552.31;5051285;28;20072;-72
2021/03/16 09:09:23;;;;;;;9.43;5.30;;;;;;;3.06;80.76;96558.00;5049514;28;20106;-72
2021/03/16 09:11:49;;;;;;;13.90;5.15;;;;;;;3.21;79.62;96559.94;5050726;28;20049;-72
2021/03/16 09:14:17;;;;;;;13.38;6.03;;;;;;;3.34;79.28;96554.84;5050002;28;20393;-72
2021/03/16 09:16:44;;;;;;;11.27;4.95;;;;;;;3.46;78.96;96554.59;5050081;28;20539;-72
2021/03/16 09:19:14;;;;;;;14.00;5.35;;;;;;;3.47;78.30;96548.13;5050218;28;20128;-72
2021/03/16 09:21:52;;;;;;;10.55;5.07;;;;;;;3.42;76.79;96555.41;5049836;28;20049;-72
2021/03/16 09:24:23;;;;;;;9.57;4.55;;;;;;;3.30;76.28;96559.16;5050692;28;20048;-74
2021/03/16 09:26:54;;;;;;;12.32;3.83;;;;;;;3.27;75.93;96554.28;5049507;28;20041;-74
2021/03/16 09:29:20;;;;;;;6.57;3.70;;;;;;;3.25;75.09;96561.03;5049992;28;20052;-71
2021/03/16 09:31:47;;;;;;;9.65;4.75;;;;;;;3.23;73.66;96563.97;5050082;28;20049;-71
2021/03/16 09:34:14;;;;;;;15.35;4.28;;;;;;;3.30;76.45;96566.41;5049812;28;20057;-71
2021/03/16 09:36:40;;;;;;;14.18;5.57;;;;;;;3.42;76.88;96571.53;5050289;28;20041;-71
2021/03/16 09:39:06;;;;;;;13.95;4.03;;;;;;;3.52;76.85;96571.56;5049508;28;20049;-71
2021/03/16 09:41:33;;;;;;;13.18;4.88;;;;;;;3.64;75.98;96575.59;5050443;28;20060;-71
2021/03/16 09:43:59;;;;;;;14.02;4.15;;;;;;;3.64;75.16;96574.78;5049617;28;20396;-71
2021/03/16 09:46:25;;;;;;;12.68;4.47;;;;;;;3.75;76.78;96576.41;5050333;28;20560;-71
2021/03/16 09:48:55;;;;;;;9.00;4.28;;;;;;;3.89;76.74;96582.91;5049465;28;20041;-72
2021/03/16 09:51:23;;;;;;;9.75;4.10;;;;;;;3.93;75.05;96589.38;5051396;28;20049;-72
2021/03/16 09:53:51;;;;;;;15.60;4.55;;;;;;;4.04;74.23;96578.59;5053922;28;20037;-72
2021/03/16 09:56:17;;;;;;;12.23;4.45;;;;;;;4.05;74.73;96590.97;5053690;28;20095;-71
2021/03/16 09:58:50;;;;;;;9.45;4.13;;;;;;;4.08;74.39;96590.44;5053978;28;20052;-72
2021/03/16 10:01:20;;;;;;;10.52;3.65;;;;;;;4.01;75.01;96596.09;5053347;28;20131;-72
2021/03/16 10:03:55;;;;;;;12.05;4.38;;;;;;;3.96;73.78;96589.88;5054308;28;20496;-72
2021/03/16 10:06:32;;;;;;;11.15;3.47;;;;;;;3.95;73.46;96588.28;5052858;28;20053;-71
2021/03/16 10:08:58;;;;;;;12.30;4.50;;;;;;;3.86;73.91;96599.63;5054488;28;20048;-71
2021/03/16 10:11:31;;;;;;;11.18;4.35;;;;;;;3.76;74.46;96596.91;5052703;28;20283;-73
2021/03/16 10:13:57;;;;;;;6.85;4.03;;;;;;;3.67;74.75;96593.13;5054422;28;20049;-71
2021/03/16 10:16:23;;;;;;;11.30;3.92;;;;;;;3.68;75.67;96594.75;5053701;28;20094;-71
2021/03/16 10:18:49;;;;;;;13.00;4.53;;;;;;;3.79;76.10;96590.97;5053498;28;20047;-71
2021/03/16 10:21:15;;;;;;;11.82;3.63;;;;;;;3.88;74.61;96592.06;5053377;28;20044;-71
2021/03/16 10:23:42;;;;;;;10.20;4.03;;;;;;;3.87;73.96;96587.75;5053334;28;20052;-74
2021/03/16 10:26:11;;;;;;;10.75;4.18;;;;;;;3.80;74.15;96583.69;5053531;28;20049;-71
2021/03/16 10:28:39;;;;;;;11.15;4.20;;;;;;;4.10;75.89;96583.69;5052667;28;20033;-71
2021/03/16 10:31:13;;;;;;;11.70;4.32;;;;;;;4.37;75.88;96578.00;5053454;28;20416;-71
2021/03/16 10:33:39;;;;;;;12.43;4.07;;;;;;;4.65;74.56;96583.88;5054015;28;20053;-71
2021/03/16 10:36:06;;;;;;;8.02;3.47;;;;;;;4.71;70.87;96583.59;5053381;28;20053;-71
2021/03/16 10:38:32;;;;;;;11.70;3.42;;;;;;;4.70;72.97;96579.28;5052965;28;20545;-71
2021/03/16 10:40:59;;;;;;;8.02;3.17;;;;;;;4.75;72.41;96574.91;5053278;28;20075;-71
2021/03/16 10:43:25;;;;;;;6.15;3.17;;;;;;;4.53;70.55;96586.06;5052860;28;20492;-72
2021/03/16 10:45:53;;;;;;;9.70;3.08;;;;;;;4.50;69.23;96581.22;5053037;28;20048;-71
2021/03/16 10:48:19;;;;;;;7.97;3.60;;;;;;;4.35;70.94;96587.44;5052875;28;20500;-71
2021/03/16 10:50:45;;;;;;;10.98;3.60;;;;;;;4.42;72.01;96579.88;5052665;28;20132;-71
2021/03/16 10:53:13;;;;;;;10.10;3.53;;;;;;;4.30;70.34;96593.66;5070660;28;20067;-71
2021/03/16 10:55:39;;;;;;;10.07;3.75;;;;;;;4.19;71.32;96586.66;5072452;28;20562;-71
2021/03/16 10:58:06;;;;;;;9.77;3.72;;;;;;;4.12;71.35;96591.50;5061167;28;20048;-72
2021/03/16 11:00:32;;;;;;;8.05;3.78;;;;;;;4.07;72.13;96600.41;5052478;28;20068;-71
2021/03/16 11:02:58;;;;;;;9.30;3.40;;;;;;;3.95;72.76;96593.66;5052662;28;20548;-71
2021/03/16 11:05:24;;;;;;;6.22;3.08;;;;;;;3.83;72.77;96596.63;5052925;28;20045;-71
2021/03/16 11:07:50;;;;;;;9.25;3.50;;;;;;;3.74;72.63;96596.34;5052558;28;20080;-71
2021/03/16 11:10:16;;;;;;;11.10;3.38;;;;;;;3.69;74.27;96598.22;5052579;28;20049;-71
2021/03/16 11:12:42;;;;;;;6.30;2.88;;;;;;;3.78;72.99;96602.81;5052400;28;20045;-71
2021/03/16 11:15:10;;;;;;;12.82;3.47;;;;;;;3.84;74.03;96599.06;5052623;28;20413;-72
2021/03/16 11:17:36;;;;;;;9.45;3.53;;;;;;;3.93;73.31;96596.66;5057106;28;20521;-71
2021/03/16 11:20:03;;;;;;;10.65;3.63;;;;;;;3.92;71.14;96598.53;5072891;28;20044;-72
2021/03/16 11:22:29;;;;;;;8.02;2.85;;;;;;;3.96;70.58;96597.97;5069891;28;20043;-71
2021/03/16 11:24:55;;;;;;;8.82;3.20;;;;;;;4.05;71.17;96599.06;5072977;28;20146;-70
2021/03/16 11:27:21;;;;;;;11.77;3.30;;;;;;;4.19;70.55;96592.06;5065947;28;20084;-72
2021/03/16 11:29:47;;;;;;;8.52;3.70;;;;;;;4.49;73.03;96593.91;5052470;28;20069;-70
2021/03/16 11:32:14;;;;;;;7.85;3.38;;;;;;;4.91;69.72;96593.50;5051828;28;20397;-71